Time;durP1;ratioP1;P1;durP2;ratioP2;P2;SDS_P1;SDS_P2;PMS_P1;PMS_P2;Temp;Humidity;BMP_temperature;BMP_pressure;BME280_temperature;BME280_humidity;BME280_pressure;Samples;Min_cycle;Max_cycle;Signal;HPM_P1;HPM_P2
2023/01/23 00:01:33;;;;;;;6.97;5.40;;;8.00;99.90;;;;;;4958378;28;20276;-84
2023/01/23 00:04:00;;;;;;;8.20;5.87;;;7.90;99.90;;;;;;4967140;28;20913;-83
2023/01/23 00:06:27;;;;;;;7.93;6.13;;;7.90;99.90;;;;;;4951152;28;20224;-83
2023/01/23 00:08:55;;;;;;;11.70;6.10;;;7.90;99.90;;;;;;4969965;28;20196;-83
2023/01/23 00:11:25;;;;;;;8.47;5.40;;;7.80;99.90;;;;;;4941037;28;20217;-82
2023/01/23 00:13:53;;;;;;;9.87;5.33;;;7.80;99.90;;;;;;4964582;28;20256;-82
2023/01/23 00:16:26;;;;;;;8.13;5.70;;;7.80;99.90;;;;;;4960900;28;20244;-83
2023/01/23 00:18:53;;;;;;;8.73;5.80;;;7.80;99.90;;;;;;4973586;28;20202;-83
2023/01/23 00:21:25;;;;;;;8.40;6.10;;;7.80;99.90;;;;;;4962543;28;20217;-84
2023/01/23 00:23:56;;;;;;;7.50;5.53;;;7.80;99.90;;;;;;4964912;28;20192;-83
2023/01/23 00:26:33;;;;;;;8.33;6.07;;;7.80;99.90;;;;;;4949305;28;20195;-83
2023/01/23 00:29:00;;;;;;;11.27;6.37;;;7.80;99.90;;;;;;4952147;28;20191;-83
2023/01/23 00:31:33;;;;;;;9.50;6.23;;;7.80;99.90;;;;;;4965389;28;20301;-83
2023/01/23 00:34:07;;;;;;;11.07;5.83;;;7.80;99.90;;;;;;4965993;28;20197;-82
2023/01/23 00:36:38;;;;;;;10.67;6.43;;;7.70;99.90;;;;;;4952068;28;20190;-83
2023/01/23 00:39:14;;;;;;;10.30;7.17;;;7.60;99.90;;;;;;4948893;28;20249;-82
2023/01/23 00:41:45;;;;;;;8.97;6.27;;;7.50;99.90;;;;;;4965892;28;20367;-82
2023/01/23 00:44:15;;;;;;;9.30;7.43;;;7.60;99.90;;;;;;4947043;28;20187;-84
2023/01/23 00:46:47;;;;;;;10.67;7.33;;;7.60;99.90;;;;;;4941805;28;20549;-83
2023/01/23 00:49:16;;;;;;;11.77;6.60;;;7.60;99.90;;;;;;4950761;28;20284;-83
2023/01/23 00:51:44;;;;;;;11.50;7.53;;;7.60;99.90;;;;;;4949141;28;20194;-83
2023/01/23 00:54:11;;;;;;;12.30;8.03;;;7.70;99.90;;;;;;4963402;28;20194;-82
2023/01/23 00:56:42;;;;;;;12.27;8.60;;;7.70;99.90;;;;;;4947100;28;20194;-83
2023/01/23 00:59:09;;;;;;;14.53;8.27;;;7.70;99.90;;;;;;4966230;28;20194;-83
2023/01/23 01:01:36;;;;;;;11.53;7.87;;;7.80;99.90;;;;;;4956858;28;20533;-83
2023/01/23 01:04:07;;;;;;;12.53;8.43;;;7.70;99.90;;;;;;4947514;28;20201;-82
2023/01/23 01:06:35;;;;;;;12.87;8.83;;;7.70;99.90;;;;;;4952055;28;20190;-82
2023/01/23 01:09:02;;;;;;;14.83;9.50;;;7.80;99.90;;;;;;4966055;28;20300;-82
2023/01/23 01:11:29;;;;;;;13.47;9.27;;;7.80;99.90;;;;;;4950231;28;21042;-83
2023/01/23 01:13:56;;;;;;;10.43;9.13;;;7.80;99.90;;;;;;4965257;28;20256;-83
2023/01/23 01:16:23;;;;;;;15.20;9.60;;;7.80;99.90;;;;;;4958440;28;20300;-84
2023/01/23 01:18:50;;;;;;;11.90;9.43;;;7.80;99.90;;;;;;4951945;28;20197;-82
2023/01/23 01:21:18;;;;;;;15.67;10.00;;;7.80;99.90;;;;;;4937017;28;20221;-84
2023/01/23 01:23:45;;;;;;;13.37;9.43;;;7.90;99.90;;;;;;4964424;28;20187;-84
2023/01/23 01:26:12;;;;;;;14.93;9.97;;;7.90;99.90;;;;;;4955210;28;20202;-83
2023/01/23 01:28:41;;;;;;;13.03;10.30;;;8.00;99.90;;;;;;4942720;28;20186;-84
2023/01/23 01:31:13;;;;;;;16.23;10.60;;;8.00;99.90;;;;;;4968655;28;21008;-84
2023/01/23 01:33:43;;;;;;;15.87;10.93;;;8.00;99.90;;;;;;4964965;28;20166;-84
2023/01/23 01:36:20;;;;;;;13.43;9.93;;;8.00;99.90;;;;;;4948703;28;20215;-83
2023/01/23 01:38:51;;;;;;;11.43;8.23;;;8.00;99.90;;;;;;4962820;28;20708;-83
2023/01/23 01:41:20;;;;;;;10.27;8.37;;;7.90;99.90;;;;;;4954991;28;20333;-82
2023/01/23 01:43:49;;;;;;;13.07;7.93;;;7.80;99.90;;;;;;4952555;28;20381;-85
2023/01/23 01:46:28;;;;;;;11.23;7.77;;;7.80;99.90;;;;;;4948061;28;20333;-82
2023/01/23 01:49:16;;;;;;;10.80;7.90;;;7.70;99.90;;;;;;4953578;28;20194;-82
2023/01/23 01:52:12;;;;;;;12.00;8.30;;;7.60;99.90;;;;;;4944181;28;20191;-83
2023/01/23 01:54:54;;;;;;;10.27;8.10;;;7.70;99.90;;;;;;4946558;28;20301;-83
2023/01/23 01:57:29;;;;;;;10.17;7.40;;;7.60;99.90;;;;;;4955493;28;20225;-83
2023/01/23 02:00:10;;;;;;;9.57;6.87;;;7.70;99.90;;;;;;4950133;28;20422;-83
2023/01/23 02:03:02;;;;;;;10.03;7.30;;;7.70;99.90;;;;;;4981407;28;20222;-82
2023/01/23 02:05:35;;;;;;;9.97;7.20;;;7.70;99.90;;;;;;4958945;28;20206;-82
2023/01/23 02:08:26;;;;;;;9.77;7.10;;;7.70;99.90;;;;;;4933789;28;20393;-81
2023/01/23 02:10:55;;;;;;;8.90;6.50;;;7.60;99.90;;;;;;4951554;28;20213;-81
2023/01/23 02:13:37;;;;;;;10.17;6.40;;;7.50;99.90;;;;;;4949396;28;20198;-82
2023/01/23 02:16:21;;;;;;;7.87;6.57;;;7.50;99.90;;;;;;4931283;28;20186;-82
2023/01/23 02:18:53;;;;;;;11.93;6.70;;;7.50;99.90;;;;;;4951147;28;20214;-82
2023/01/23 02:21:24;;;;;;;10.50;6.90;;;7.50;99.90;;;;;;4977953;28;20210;-82
2023/01/23 02:24:38;;;;;;;11.37;6.90;;;7.50;99.90;;;;;;4947830;28;20186;-83
2023/01/23 02:27:07;;;;;;;7.57;6.03;;;7.50;99.90;;;;;;4942250;28;20676;-83
2023/01/23 02:29:47;;;;;;;8.30;6.40;;;7.50;99.90;;;;;;4962798;28;20190;-83
2023/01/23 02:32:13;;;;;;;8.67;6.47;;;7.40;99.90;;;;;;4977306;28;20213;-83
2023/01/23 02:34:41;;;;;;;10.80;7.20;;;7.30;99.90;;;;;;4947871;28;20206;-82
2023/01/23 02:37:13;;;;;;;8.40;6.93;;;7.30;99.90;;;;;;4949595;28;20186;-83
2023/01/23 02:39:39;;;;;;;11.73;6.70;;;7.30;99.90;;;;;;4961599;28;20217;-83
2023/01/23 02:42:09;;;;;;;12.77;6.50;;;7.30;99.90;;;;;;4943643;28;20222;-83
2023/01/23 02:44:36;;;;;;;10.73;6.73;;;7.30;99.90;;;;;;4963267;28;20761;-82
2023/01/23 02:47:10;;;;;;;9.97;6.60;;;7.30;99.90;;;;;;4947104;28;20614;-84
2023/01/23 02:49:38;;;;;;;9.47;6.60;;;7.30;99.90;;;;;;4963759;28;20185;-82
2023/01/23 02:52:06;;;;;;;8.60;6.40;;;7.40;99.90;;;;;;4976144;28;20194;-83
2023/01/23 02:54:33;;;;;;;7.97;6.10;;;7.30;99.90;;;;;;4945949;28;20197;-83
2023/01/23 02:57:01;;;;;;;9.80;6.63;;;7.30;99.90;;;;;;4961251;28;20696;-83
2023/01/23 03:02:19;;;;;;;10.07;6.03;;;7.30;99.90;;;;;;4952369;28;20210;-83
2023/01/23 03:04:50;;;;;;;10.13;7.43;;;7.30;99.90;;;;;;4951769;28;20193;-83
2023/01/23 03:07:17;;;;;;;15.03;6.77;;;7.30;99.90;;;;;;4951620;28;20189;-83
2023/01/23 03:09:46;;;;;;;10.03;7.07;;;7.30;99.90;;;;;;4950195;28;20631;-83
2023/01/23 03:12:19;;;;;;;9.37;6.47;;;7.30;99.90;;;;;;4960811;28;20201;-82
2023/01/23 03:14:47;;;;;;;10.83;6.90;;;7.30;99.90;;;;;;4928962;28;20194;-82
2023/01/23 03:17:14;;;;;;;12.47;6.70;;;7.30;99.90;;;;;;4947178;28;20877;-79
2023/01/23 03:19:41;;;;;;;10.17;6.60;;;7.30;99.90;;;;;;4946248;28;20775;-79
2023/01/23 03:22:07;;;;;;;7.80;6.03;;;7.20;99.90;;;;;;4933509;28;20693;-79
2023/01/23 03:24:34;;;;;;;8.83;6.23;;;7.20;99.90;;;;;;4959055;28;20190;-79
2023/01/23 03:27:01;;;;;;;8.53;5.57;;;7.20;99.90;;;;;;4942703;28;20182;-79
2023/01/23 03:32:17;;;;;;;9.17;5.73;;;7.20;99.90;;;;;;4972376;28;20216;-79
2023/01/23 03:34:44;;;;;;;8.77;6.27;;;7.20;99.90;;;;;;4963762;28;20186;-79
2023/01/23 03:37:16;;;;;;;10.47;6.50;;;7.10;99.90;;;;;;4981568;28;20198;-79
2023/01/23 03:42:26;;;;;;;8.27;5.80;;;7.10;99.90;;;;;;4968551;28;20218;-79
2023/01/23 03:44:53;;;;;;;8.80;6.17;;;7.10;99.90;;;;;;4965180;28;20179;-79
2023/01/23 03:47:29;;;;;;;10.17;6.20;;;7.10;99.90;;;;;;4961496;28;20214;-80
2023/01/23 03:49:56;;;;;;;9.97;6.37;;;7.10;99.90;;;;;;4986996;28;20185;-79
2023/01/23 03:52:22;;;;;;;9.97;6.00;;;7.10;99.90;;;;;;4967033;28;20225;-80
2023/01/23 03:54:50;;;;;;;7.50;6.23;;;7.20;99.90;;;;;;4974025;28;20348;-80
2023/01/23 03:57:19;;;;;;;8.77;6.00;;;7.20;99.90;;;;;;4965369;28;20190;-80
2023/01/23 03:59:46;;;;;;;8.67;6.60;;;7.30;99.90;;;;;;4985077;28;20182;-79
2023/01/23 04:02:13;;;;;;;6.70;6.00;;;7.30;99.90;;;;;;4947800;28;20226;-79
2023/01/23 04:04:39;;;;;;;9.33;6.17;;;7.30;99.90;;;;;;4952018;28;20724;-78
2023/01/23 04:07:12;;;;;;;8.70;6.13;;;7.30;99.90;;;;;;4970210;28;20209;-79
2023/01/23 04:09:38;;;;;;;8.20;5.90;;;7.30;99.90;;;;;;4954396;28;20249;-79
2023/01/23 04:12:05;;;;;;;9.97;5.40;;;7.30;99.90;;;;;;4952311;28;20209;-79
2023/01/23 04:14:36;;;;;;;8.83;5.83;;;7.30;99.90;;;;;;4974771;28;20798;-79
2023/01/23 04:17:05;;;;;;;7.23;5.30;;;7.30;99.90;;;;;;4963738;28;20242;-79
2023/01/23 04:19:32;;;;;;;6.70;5.10;;;7.20;99.90;;;;;;4969287;28;20201;-79
2023/01/23 04:21:59;;;;;;;7.27;5.10;;;7.20;99.90;;;;;;4970746;28;20210;-79
2023/01/23 04:24:27;;;;;;;8.30;5.50;;;7.20;99.90;;;;;;4958460;28;20201;-79
2023/01/23 04:26:54;;;;;;;9.37;5.83;;;7.20;99.90;;;;;;4963865;28;20197;-79
2023/01/23 04:29:26;;;;;;;9.23;6.17;;;7.10;99.90;;;;;;4965436;28;20537;-79
2023/01/23 04:31:52;;;;;;;12.07;7.17;;;7.20;99.90;;;;;;4963474;28;20191;-79
2023/01/23 04:34:20;;;;;;;9.97;6.53;;;7.10;99.90;;;;;;4962495;28;20209;-79
2023/01/23 04:36:46;;;;;;;9.10;5.83;;;7.10;99.90;;;;;;4973180;28;20214;-79
2023/01/23 04:39:16;;;;;;;10.10;5.80;;;7.00;99.90;;;;;;4965135;28;20189;-79
2023/01/23 04:41:45;;;;;;;12.97;6.37;;;7.00;99.90;;;;;;4949156;28;20219;-79
2023/01/23 04:44:20;;;;;;;6.73;5.20;;;7.00;99.90;;;;;;4982771;28;20539;-79
2023/01/23 04:46:51;;;;;;;7.97;5.60;;;7.00;99.90;;;;;;4975393;28;20186;-79
2023/01/23 04:49:24;;;;;;;6.73;5.27;;;7.00;99.90;;;;;;4980464;28;20186;-79
2023/01/23 04:51:52;;;;;;;10.87;5.40;;;7.00;99.90;;;;;;4977273;28;20220;-80
2023/01/23 04:54:22;;;;;;;8.53;5.63;;;7.10;99.90;;;;;;4999693;28;20198;-80
2023/01/23 04:56:50;;;;;;;9.90;5.97;;;7.00;99.90;;;;;;4975594;28;20760;-79
2023/01/23 04:59:21;;;;;;;7.23;5.70;;;7.00;99.90;;;;;;4959832;28;20334;-79
2023/01/23 05:01:48;;;;;;;7.97;5.50;;;7.00;99.90;;;;;;4963213;28;20214;-79
2023/01/23 05:04:14;;;;;;;10.73;5.53;;;7.00;99.90;;;;;;4960938;28;20177;-79
2023/01/23 05:06:40;;;;;;;8.73;6.27;;;7.00;99.90;;;;;;4967360;28;20186;-79
2023/01/23 05:09:07;;;;;;;8.40;6.03;;;7.00;99.90;;;;;;4974951;28;20182;-79
2023/01/23 05:11:33;;;;;;;10.17;6.03;;;7.00;99.90;;;;;;4991209;28;20197;-79
2023/01/23 05:14:02;;;;;;;11.20;6.77;;;7.00;99.90;;;;;;4979402;28;20190;-79
2023/01/23 05:16:33;;;;;;;10.23;6.93;;;7.00;99.90;;;;;;4964629;28;20268;-79
2023/01/23 05:19:00;;;;;;;12.53;6.43;;;7.00;99.90;;;;;;4968619;28;20653;-79
2023/01/23 05:21:26;;;;;;;11.30;7.20;;;7.00;99.90;;;;;;4968848;28;20209;-79
2023/01/23 05:23:53;;;;;;;10.87;7.00;;;7.10;99.90;;;;;;4971342;28;20186;-79
2023/01/23 05:26:19;;;;;;;10.70;7.00;;;7.10;99.90;;;;;;4971911;28;20190;-79
2023/01/23 05:28:47;;;;;;;11.63;6.67;;;7.10;99.90;;;;;;4984575;28;20183;-79
2023/01/23 05:31:17;;;;;;;12.13;7.10;;;7.10;99.90;;;;;;4967775;28;20245;-79
2023/01/23 05:33:43;;;;;;;11.80;6.63;;;7.10;99.90;;;;;;4969893;28;20239;-79
2023/01/23 05:36:10;;;;;;;7.53;6.10;;;7.20;99.90;;;;;;4961598;28;20194;-79
2023/01/23 05:38:39;;;;;;;7.00;5.30;;;7.20;99.90;;;;;;4964172;28;20189;-79
2023/01/23 05:41:05;;;;;;;8.47;5.77;;;7.30;99.90;;;;;;4958389;28;20218;-80
2023/01/23 05:43:35;;;;;;;7.43;4.90;;;7.30;99.90;;;;;;4997358;28;20593;-79
2023/01/23 05:46:02;;;;;;;9.70;6.07;;;7.30;99.90;;;;;;4963757;28;20277;-79
2023/01/23 05:48:31;;;;;;;8.30;5.70;;;7.30;99.90;;;;;;4969569;28;20197;-78
2023/01/23 05:51:04;;;;;;;8.90;6.70;;;7.30;99.90;;;;;;4966932;28;20222;-80
2023/01/23 05:53:31;;;;;;;8.20;5.60;;;7.40;99.90;;;;;;4946336;28;20277;-79
2023/01/23 05:55:58;;;;;;;7.37;6.03;;;7.40;99.90;;;;;;4966136;28;20218;-79
2023/01/23 05:58:27;;;;;;;9.73;5.77;;;7.40;99.90;;;;;;4963310;28;20194;-79
2023/01/23 06:00:54;;;;;;;8.40;5.77;;;7.40;99.90;;;;;;4964973;28;20283;-79
2023/01/23 06:03:21;;;;;;;12.53;6.10;;;7.40;99.90;;;;;;4947052;28;20242;-80
2023/01/23 06:05:50;;;;;;;11.50;5.97;;;7.40;99.90;;;;;;4980476;28;20195;-80
2023/01/23 06:08:28;;;;;;;;;;;;;;;;;;;;;
2023/01/23 06:10:58;;;;;;;9.90;6.30;;;7.50;99.90;;;;;;4982039;28;20199;-80
2023/01/23 06:13:29;;;;;;;8.27;6.10;;;7.60;99.90;;;;;;4959712;28;20263;-80
2023/01/23 06:15:55;;;;;;;10.17;6.47;;;7.60;99.90;;;;;;4964340;28;20190;-80
2023/01/23 06:18:23;;;;;;;8.83;6.30;;;7.70;99.90;;;;;;4963957;28;20991;-84
2023/01/23 06:20:57;;;;;;;12.50;6.53;;;7.80;99.90;;;;;;4966508;28;20225;-85
2023/01/23 06:23:29;;;;;;;14.23;6.20;;;7.80;99.90;;;;;;4963490;28;20188;-83
2023/01/23 06:26:00;;;;;;;9.37;6.53;;;7.90;99.90;;;;;;4948051;28;20281;-84
2023/01/23 06:28:28;;;;;;;11.00;7.90;;;8.00;99.90;;;;;;4968010;28;20285;-84
2023/01/23 06:30:58;;;;;;;9.67;6.80;;;8.10;99.90;;;;;;4963830;28;20217;-84
2023/01/23 06:33:27;;;;;;;10.67;6.93;;;8.30;99.90;;;;;;4981423;28;20270;-84
2023/01/23 06:36:01;;;;;;;14.67;7.43;;;8.30;99.90;;;;;;4962868;28;20198;-84
2023/01/23 06:38:29;;;;;;;9.30;7.10;;;8.50;99.90;;;;;;4967536;28;20190;-84
2023/01/23 06:40:56;;;;;;;9.60;7.13;;;8.60;99.90;;;;;;4966610;28;20222;-80
2023/01/23 06:43:24;;;;;;;9.57;7.57;;;8.60;99.90;;;;;;4962793;28;20921;-80
2023/01/23 06:45:51;;;;;;;10.93;8.30;;;8.70;99.90;;;;;;4982925;28;20332;-80
2023/01/23 06:48:17;;;;;;;12.97;8.03;;;8.70;99.90;;;;;;4963634;28;20193;-80
2023/01/23 06:50:44;;;;;;;9.60;7.63;;;8.80;99.90;;;;;;4968362;28;20187;-80
2023/01/23 06:53:14;;;;;;;10.77;7.40;;;8.90;99.90;;;;;;4958630;28;20514;-79
2023/01/23 06:55:43;;;;;;;10.33;7.77;;;8.90;99.90;;;;;;4977816;28;21672;-80
2023/01/23 06:58:10;;;;;;;10.73;7.67;;;9.00;99.90;;;;;;4956514;28;20217;-79
2023/01/23 07:00:39;;;;;;;10.07;7.67;;;9.00;99.90;;;;;;4964416;28;20252;-84
2023/01/23 07:03:07;;;;;;;10.67;7.50;;;9.10;99.90;;;;;;4959248;28;20186;-85
2023/01/23 07:05:42;;;;;;;10.73;7.67;;;9.10;99.90;;;;;;4975986;28;20186;-83
2023/01/23 07:08:09;;;;;;;9.00;7.60;;;9.20;99.90;;;;;;4966782;28;20216;-84
2023/01/23 07:10:37;;;;;;;10.73;7.77;;;9.30;99.90;;;;;;4991536;28;20545;-87
2023/01/23 07:13:11;;;;;;;12.63;7.77;;;9.40;99.90;;;;;;4974743;28;20192;-87
2023/01/23 07:15:39;;;;;;;11.90;8.23;;;9.40;99.90;;;;;;5002244;28;20185;-86
2023/01/23 07:18:09;;;;;;;12.87;7.50;;;9.40;99.90;;;;;;4970478;28;20205;-84
2023/01/23 07:20:42;;;;;;;13.90;8.17;;;9.50;99.90;;;;;;4982475;28;20932;-86
2023/01/23 07:23:11;;;;;;;13.77;7.87;;;9.50;99.90;;;;;;4979293;28;20346;-85
2023/01/23 07:25:38;;;;;;;10.73;7.60;;;9.60;99.90;;;;;;4976477;28;20186;-87
2023/01/23 07:28:07;;;;;;;12.37;7.97;;;9.70;99.90;;;;;;4976038;28;20213;-87
2023/01/23 07:30:33;;;;;;;9.13;7.23;;;9.70;99.90;;;;;;4950654;28;20281;-84
2023/01/23 07:33:03;;;;;;;12.20;8.40;;;9.80;99.90;;;;;;4959769;28;20550;-82
2023/01/23 07:35:32;;;;;;;12.93;7.77;;;9.80;99.90;;;;;;4964703;28;20281;-87
2023/01/23 07:38:08;;;;;;;9.17;7.03;;;9.90;99.90;;;;;;4961615;28;20222;-85
2023/01/23 07:40:37;;;;;;;10.87;7.10;;;9.90;99.90;;;;;;4978203;28;20278;-84
2023/01/23 07:43:06;;;;;;;13.57;7.40;;;9.90;99.90;;;;;;4985680;28;20205;-85
2023/01/23 07:45:33;;;;;;;9.67;7.37;;;9.90;99.90;;;;;;4968101;28;20182;-85
2023/01/23 07:48:01;;;;;;;11.80;7.40;;;9.90;99.90;;;;;;4975497;28;20308;-85
2023/01/23 07:50:29;;;;;;;10.77;7.57;;;10.00;99.90;;;;;;4981025;28;20183;-85
2023/01/23 07:52:56;;;;;;;9.67;6.87;;;10.00;99.90;;;;;;4966988;28;20266;-86
2023/01/23 07:55:23;;;;;;;9.63;7.37;;;10.10;99.90;;;;;;4969995;28;20229;-86
2023/01/23 07:57:54;;;;;;;11.67;6.90;;;10.10;99.90;;;;;;4968286;28;20215;-86
2023/01/23 08:00:24;;;;;;;11.83;7.63;;;10.10;99.90;;;;;;4966618;28;20186;-85
2023/01/23 08:03:00;;;;;;;8.23;6.70;;;10.10;99.90;;;;;;4982257;28;20332;-84
2023/01/23 08:05:32;;;;;;;8.53;6.93;;;10.10;99.90;;;;;;4963814;28;20214;-85
2023/01/23 08:07:59;;;;;;;11.33;7.00;;;10.20;99.90;;;;;;4969323;28;20226;-85
2023/01/23 08:10:31;;;;;;;24.90;6.90;;;10.20;99.90;;;;;;4969736;28;20197;-85
2023/01/23 08:12:58;;;;;;;11.63;6.70;;;10.30;99.90;;;;;;4970839;28;20194;-84
2023/01/23 08:15:25;;;;;;;13.60;7.10;;;10.30;99.90;;;;;;4963787;28;20202;-84
2023/01/23 08:17:56;;;;;;;9.20;6.33;;;10.30;99.90;;;;;;4959600;28;20202;-84
2023/01/23 08:20:27;;;;;;;8.20;5.83;;;10.30;99.90;;;;;;4971163;28;20189;-84
2023/01/23 08:23:00;;;;;;;8.77;6.23;;;10.40;99.90;;;;;;4967401;28;20201;-83
2023/01/23 08:25:27;;;;;;;10.23;5.30;;;10.50;99.90;;;;;;4967439;28;20190;-83
2023/01/23 08:27:54;;;;;;;7.13;5.03;;;10.50;99.90;;;;;;4983011;28;20249;-86
2023/01/23 08:30:23;;;;;;;8.00;4.97;;;10.50;99.90;;;;;;4952224;28;20186;-85
2023/01/23 08:32:54;;;;;;;7.27;5.30;;;10.60;99.90;;;;;;4989705;28;20208;-84
2023/01/23 08:35:22;;;;;;;15.13;5.70;;;10.70;99.90;;;;;;4949777;28;20248;-84
2023/01/23 08:37:49;;;;;;;9.70;5.43;;;10.70;99.90;;;;;;4967142;28;20202;-85
2023/01/23 08:40:16;;;;;;;8.80;5.70;;;10.70;99.90;;;;;;4966014;28;20221;-84
2023/01/23 08:42:47;;;;;;;13.83;8.33;;;10.70;99.90;;;;;;4970182;28;20213;-87
2023/01/23 08:45:20;;;;;;;13.97;8.73;;;10.80;99.90;;;;;;4989546;28;20194;-86
2023/01/23 08:47:53;;;;;;;15.13;9.43;;;10.80;99.90;;;;;;4957008;28;20183;-84
2023/01/23 08:50:20;;;;;;;12.57;8.33;;;10.90;99.90;;;;;;4983852;28;20217;-85
2023/01/23 08:53:01;;;;;;;11.07;8.53;;;11.00;99.90;;;;;;4967087;28;20225;-79
2023/01/23 08:55:28;;;;;;;9.87;7.50;;;11.00;99.90;;;;;;4961819;28;20192;-84
2023/01/23 08:58:06;;;;;;;11.70;7.10;;;11.00;99.90;;;;;;4948008;28;20190;-85
2023/01/23 09:00:35;;;;;;;10.27;6.87;;;11.10;99.90;;;;;;4962494;28;20706;-80
2023/01/23 09:03:10;;;;;;;12.70;6.77;;;11.10;99.90;;;;;;4969645;28;20862;-84
2023/01/23 09:05:43;;;;;;;12.93;5.30;;;11.10;99.90;;;;;;4962124;28;20417;-85
2023/01/23 09:08:10;;;;;;;7.13;4.70;;;11.20;99.90;;;;;;4970551;28;20269;-85
2023/01/23 09:10:37;;;;;;;7.70;4.33;;;11.30;99.90;;;;;;4975792;28;20201;-79
2023/01/23 09:13:04;;;;;;;6.70;4.63;;;11.40;99.90;;;;;;4966264;28;20396;-79
2023/01/23 09:15:34;;;;;;;6.90;4.90;;;11.40;99.90;;;;;;4972605;28;20208;-79
2023/01/23 12:25:29;;;;;;;9.07;6.23;;;16.20;99.90;;;;;;5116652;27;20542;-72
2023/01/23 12:28:43;;;;;;;10.07;5.90;;;16.10;99.90;;;;;;5086775;28;20745;-72
2023/01/23 12:31:12;;;;;;;10.87;6.33;;;16.10;99.90;;;;;;5097985;28;20185;-74
2023/01/23 12:34:28;;;;;;;9.97;6.43;;;16.10;99.90;;;;;;5097586;28;20766;-71
2023/01/23 12:37:21;;;;;;;11.73;6.03;;;16.10;99.90;;;;;;5101021;28;20197;-71
2023/01/23 12:40:21;;;;;;;11.77;6.20;;;16.00;99.90;;;;;;5101677;28;20185;-71
2023/01/23 12:43:45;;;;;;;8.50;5.97;;;16.10;99.90;;;;;;5097838;28;20638;-71
2023/01/23 12:46:39;;;;;;;11.03;5.77;;;16.00;99.90;;;;;;5087452;28;20200;-72
2023/01/23 12:49:31;;;;;;;8.97;6.17;;;16.00;99.90;;;;;;5088995;28;20801;-72
2023/01/23 12:52:22;;;;;;;8.63;5.67;;;16.00;99.90;;;;;;5090119;28;20204;-72
2023/01/23 12:55:49;;;;;;;10.83;6.00;;;16.00;99.90;;;;;;5087565;28;20233;-72
2023/01/23 12:58:29;;;;;;;9.37;5.93;;;15.90;99.90;;;;;;5066024;28;20202;-72
2023/01/23 13:01:53;;;;;;;11.47;6.20;;;15.80;99.90;;;;;;5103380;28;20626;-72
2023/01/23 13:05:00;;;;;;;6.90;5.40;;;15.80;99.90;;;;;;5096885;28;20215;-73
2023/01/23 13:07:49;;;;;;;10.50;7.03;;;15.80;99.90;;;;;;5095704;28;20758;-73
2023/01/23 13:13:48;;;;;;;12.27;7.30;;;15.70;99.90;;;;;;5044219;28;20239;-73
2023/01/23 13:16:26;;;;;;;10.43;7.10;;;15.70;99.90;;;;;;5086439;28;20201;-73
2023/01/23 13:22:24;;;;;;;10.60;6.47;;;15.60;99.90;;;;;;5095783;28;20190;-72
2023/01/23 13:25:13;;;;;;;9.37;5.30;;;15.60;99.90;;;;;;5082277;28;20276;-73
2023/01/23 13:27:50;;;;;;;10.77;6.07;;;15.60;99.90;;;;;;5083212;28;20198;-72
2023/01/23 13:30:33;;;;;;;10.10;6.10;;;15.60;99.90;;;;;;5080268;28;20186;-73
2023/01/23 13:33:14;;;;;;;11.30;5.83;;;15.50;99.90;;;;;;5088352;28;20209;-73
2023/01/23 13:35:48;;;;;;;11.10;6.00;;;15.50;99.90;;;;;;5087841;28;20186;-72
2023/01/23 13:38:20;;;;;;;10.90;6.57;;;15.50;99.90;;;;;;5081707;28;20282;-73
2023/01/23 13:41:13;;;;;;;11.77;6.40;;;15.40;99.90;;;;;;5093136;28;20190;-73
2023/01/23 13:43:49;;;;;;;10.23;6.60;;;15.30;99.90;;;;;;5081134;28;20558;-72
2023/01/23 13:46:44;;;;;;;8.63;6.07;;;15.30;99.90;;;;;;5059278;28;20582;-72
2023/01/23 13:49:54;;;;;;;9.17;5.93;;;15.20;99.90;;;;;;5091914;28;20204;-72
2023/01/23 13:58:27;;;;;;;14.93;5.47;;;15.00;99.90;;;;;;5096318;28;20714;-73
2023/01/23 14:07:47;;;;;;;9.33;5.33;;;14.90;99.90;;;;;;5076184;28;21198;-72
2023/01/23 14:10:48;;;;;;;10.23;5.73;;;14.80;99.90;;;;;;5075752;28;20228;-72
2023/01/23 14:13:21;;;;;;;7.03;5.30;;;14.80;99.90;;;;;;5081314;28;20288;-72
2023/01/23 14:16:10;;;;;;;11.83;6.33;;;14.70;99.90;;;;;;5095254;28;20837;-73
2023/01/23 14:19:12;;;;;;;10.20;5.90;;;14.70;99.90;;;;;;5079836;28;20190;-73
2023/01/23 14:21:53;;;;;;;10.23;5.73;;;14.60;99.90;;;;;;5074715;28;20619;-73
2023/01/23 14:24:48;;;;;;;9.10;6.13;;;14.50;99.90;;;;;;5074547;28;20210;-73
2023/01/23 14:27:35;;;;;;;22.73;6.47;;;14.50;99.90;;;;;;5073563;28;20225;-73
2023/01/23 14:30:17;;;;;;;9.83;6.03;;;14.40;99.90;;;;;;5095786;28;20212;-73
2023/01/23 14:32:49;;;;;;;8.47;5.73;;;14.30;99.90;;;;;;5077163;28;20277;-73
2023/01/23 14:35:28;;;;;;;13.67;6.37;;;14.20;99.90;;;;;;5080328;28;20228;-73
2023/01/23 14:38:00;;;;;;;8.03;5.83;;;14.20;99.90;;;;;;5081252;28;20190;-72
2023/01/23 14:40:28;;;;;;;10.90;5.83;;;14.10;99.90;;;;;;5075287;28;20254;-73
2023/01/23 14:43:07;;;;;;;8.63;5.60;;;14.00;99.90;;;;;;5064514;28;20186;-72
2023/01/23 14:45:38;;;;;;;11.93;5.97;;;13.90;99.90;;;;;;5078594;28;20194;-72
2023/01/23 14:48:13;;;;;;;9.30;6.20;;;13.80;99.90;;;;;;5076673;28;20219;-72
2023/01/23 14:50:44;;;;;;;10.73;6.20;;;13.80;99.90;;;;;;5072226;28;20199;-72
2023/01/23 14:53:16;;;;;;;10.33;6.33;;;13.70;99.90;;;;;;5088007;28;20210;-73
2023/01/23 14:55:49;;;;;;;8.13;6.23;;;13.50;99.90;;;;;;5081204;28;20214;-72
2023/01/23 14:58:25;;;;;;;8.17;6.17;;;13.40;99.90;;;;;;5082955;28;20214;-72
2023/01/23 15:00:56;;;;;;;9.67;6.57;;;13.40;99.90;;;;;;5082823;28;20663;-72
2023/01/23 15:04:01;;;;;;;11.03;6.47;;;13.30;99.90;;;;;;5072980;28;20269;-73
2023/01/23 15:06:34;;;;;;;10.87;6.27;;;13.20;99.90;;;;;;5083099;28;20198;-72
2023/01/23 15:09:32;;;;;;;7.83;5.70;;;13.00;99.90;;;;;;5068591;28;20209;-72
2023/01/23 15:12:14;;;;;;;9.87;7.00;;;12.90;99.90;;;;;;5087477;28;20209;-72
2023/01/23 15:14:44;;;;;;;12.73;6.60;;;12.80;99.90;;;;;;5089224;28;20194;-73
2023/01/23 15:17:22;;;;;;;10.20;7.30;;;12.80;99.90;;;;;;5073981;28;20221;-73
2023/01/23 15:20:01;;;;;;;9.17;6.77;;;12.70;99.90;;;;;;5090020;28;20201;-73
2023/01/23 15:22:31;;;;;;;9.70;6.83;;;12.50;99.90;;;;;;5075275;28;20211;-73
2023/01/23 15:25:33;;;;;;;11.53;7.17;;;12.40;99.90;;;;;;5074686;28;20276;-73
2023/01/23 15:28:51;;;;;;;12.53;8.47;;;12.40;99.90;;;;;;5084023;28;20196;-73
2023/01/23 15:31:43;;;;;;;9.40;6.80;;;12.40;99.90;;;;;;5056051;28;20193;-73
2023/01/23 15:34:31;;;;;;;9.77;6.97;;;12.20;99.90;;;;;;5077997;28;20241;-73
2023/01/23 15:37:14;;;;;;;8.23;7.00;;;12.10;99.90;;;;;;5076927;28;21500;-73
2023/01/23 15:40:01;;;;;;;10.37;7.27;;;12.00;99.90;;;;;;5073779;28;20497;-73
2023/01/23 15:42:30;;;;;;;10.00;7.10;;;11.90;99.90;;;;;;5070138;28;20566;-73
2023/01/23 15:45:00;;;;;;;12.27;8.10;;;11.90;99.90;;;;;;5068288;28;20289;-73
2023/01/23 15:47:32;;;;;;;10.23;7.70;;;11.90;99.90;;;;;;5077291;28;20185;-73
2023/01/23 15:50:02;;;;;;;10.53;7.97;;;11.80;99.90;;;;;;5076428;28;20178;-73
2023/01/23 15:52:45;;;;;;;13.10;8.33;;;11.80;99.90;;;;;;5076190;28;20241;-73
2023/01/23 15:55:13;;;;;;;11.90;8.50;;;11.80;99.90;;;;;;5077370;28;20443;-73
2023/01/23 15:57:45;;;;;;;11.50;8.13;;;11.70;99.90;;;;;;5061618;28;20196;-73
2023/01/23 16:00:25;;;;;;;11.20;8.87;;;11.70;99.90;;;;;;5074943;28;20225;-73
2023/01/23 16:02:53;;;;;;;14.33;8.80;;;11.70;99.90;;;;;;5072944;28;20182;-73
2023/01/23 16:05:26;;;;;;;13.17;8.63;;;11.70;99.90;;;;;;5072071;28;20191;-73
2023/01/23 16:08:01;;;;;;;11.83;9.20;;;11.60;99.90;;;;;;5074576;28;20278;-73
2023/01/23 16:10:40;;;;;;;16.17;9.97;;;11.60;99.90;;;;;;5075976;28;20217;-73
2023/01/23 16:13:14;;;;;;;14.70;9.30;;;11.50;99.90;;;;;;5081604;28;20202;-73
2023/01/23 16:15:43;;;;;;;13.87;10.03;;;11.50;99.90;;;;;;5069603;28;20316;-73
2023/01/23 16:18:17;;;;;;;16.30;10.10;;;11.50;99.90;;;;;;5072570;28;20190;-73
2023/01/23 16:20:48;;;;;;;14.70;10.57;;;11.50;99.90;;;;;;5076764;28;20196;-73
2023/01/23 16:23:23;;;;;;;17.07;11.00;;;11.50;99.90;;;;;;5079948;28;20191;-73
2023/01/23 16:25:50;;;;;;;15.30;10.37;;;11.50;99.90;;;;;;5083082;28;20197;-73
2023/01/23 16:28:28;;;;;;;15.47;11.50;;;11.50;99.90;;;;;;5073092;28;20190;-73
2023/01/23 16:30:55;;;;;;;13.87;11.23;;;11.50;99.90;;;;;;5083062;28;20189;-72
2023/01/23 16:33:22;;;;;;;14.27;10.13;;;11.60;99.90;;;;;;5077486;28;20213;-72
2023/01/23 16:35:51;;;;;;;13.13;10.90;;;11.60;99.90;;;;;;5060072;28;20194;-72
2023/01/23 16:38:28;;;;;;;13.63;10.50;;;11.60;99.90;;;;;;5080064;28;20186;-72
2023/01/23 16:40:58;;;;;;;12.70;9.67;;;11.70;99.90;;;;;;5087610;28;20213;-73
2023/01/23 16:43:27;;;;;;;15.40;10.00;;;11.70;99.90;;;;;;5075007;28;20276;-73
2023/01/23 16:45:56;;;;;;;29.57;11.70;;;11.70;99.90;;;;;;5079577;28;20177;-73
2023/01/23 16:48:27;;;;;;;18.77;10.77;;;11.70;99.90;;;;;;5079678;28;20213;-73
2023/01/23 16:51:13;;;;;;;13.00;9.80;;;11.80;99.90;;;;;;5082263;28;20233;-72
2023/01/23 16:53:59;;;;;;;12.27;9.63;;;11.80;99.90;;;;;;5071842;28;20198;-72
2023/01/23 16:56:40;;;;;;;15.13;10.03;;;11.60;99.90;;;;;;5081873;28;20278;-72